createdAt,value
2023-05-03T00:00:10.419Z,5.40
2023-05-03T00:02:40.275Z,10.20
2023-05-03T00:05:13.212Z,3.60
2023-05-03T00:07:44.006Z,5.30
2023-05-03T00:10:12.888Z,6.90
2023-05-03T00:12:40.088Z,5.30
2023-05-03T00:15:07.228Z,6.50
2023-05-03T00:17:34.153Z,7.00
2023-05-03T00:20:02.025Z,5.10
2023-05-03T00:22:29.110Z,7.60
2023-05-03T00:24:56.721Z,13.10
2023-05-03T00:27:24.442Z,7.70
2023-05-03T00:29:52.606Z,7.40
2023-05-03T00:32:26.333Z,10.50
2023-05-03T00:34:56.854Z,7.70
2023-05-03T00:37:24.012Z,12.00
2023-05-03T00:39:50.849Z,4.70
2023-05-03T00:42:17.620Z,4.70
2023-05-03T00:44:44.390Z,12.60
2023-05-03T00:47:11.438Z,8.00
2023-05-03T00:49:38.242Z,9.20
2023-05-03T00:52:05.312Z,9.00
2023-05-03T00:54:33.258Z,9.40
2023-05-03T00:57:00.172Z,17.60
2023-05-03T00:59:26.987Z,12.40
2023-05-03T01:01:54.063Z,19.50
2023-05-03T01:04:21.789Z,12.70
2023-05-03T01:07:01.339Z,6.40
2023-05-03T01:09:31.396Z,12.80
2023-05-03T01:12:01.143Z,9.30
2023-05-03T01:14:41.880Z,5.00
2023-05-03T01:17:09.574Z,12.50
2023-05-03T01:19:38.193Z,8.20
2023-05-03T01:22:18.077Z,5.10
2023-05-03T01:24:46.171Z,10.90
2023-05-03T01:27:13.868Z,7.50
2023-05-03T01:29:40.704Z,5.60
2023-05-03T01:32:09.787Z,8.40
2023-05-03T01:34:44.751Z,8.00
2023-05-03T01:37:11.527Z,8.20
2023-05-03T01:39:49.135Z,7.70
2023-05-03T01:42:15.979Z,6.20
2023-05-03T01:44:42.909Z,8.80
2023-05-03T01:47:10.561Z,6.40
2023-05-03T01:49:38.690Z,5.30
2023-05-03T01:52:05.479Z,7.50
2023-05-03T01:54:32.395Z,6.50
2023-05-03T01:56:59.144Z,3.60
2023-05-03T01:59:25.891Z,6.40
2023-05-03T02:01:52.693Z,7.00
2023-05-03T02:04:19.512Z,9.90
2023-05-03T02:06:46.405Z,9.70
2023-05-03T02:09:13.293Z,7.30
2023-05-03T02:11:40.864Z,5.10
2023-05-03T02:14:08.206Z,5.20
2023-05-03T02:16:35.067Z,4.20
2023-05-03T02:19:02.005Z,6.80
2023-05-03T02:21:28.763Z,5.60
2023-05-03T02:23:55.557Z,10.10
2023-05-03T02:26:22.466Z,11.90
2023-05-03T02:28:49.232Z,8.90
2023-05-03T02:31:19.567Z,7.00
2023-05-03T02:40:30.263Z,6.20
2023-05-03T02:42:59.530Z,8.10
2023-05-03T02:45:26.711Z,8.50
2023-05-03T02:47:54.125Z,8.90
2023-05-03T02:50:21.630Z,18.50
2023-05-03T02:52:48.517Z,7.00
2023-05-03T02:55:15.335Z,7.40
2023-05-03T02:57:42.777Z,4.90
2023-05-03T03:00:11.541Z,7.40
2023-05-03T03:02:38.634Z,10.30
2023-05-03T03:05:05.672Z,9.30
2023-05-03T03:07:32.803Z,10.30
2023-05-03T03:09:59.708Z,8.80
2023-05-03T03:12:29.112Z,7.80
2023-05-03T03:14:56.241Z,8.70
2023-05-03T03:17:23.445Z,10.70
2023-05-03T03:19:50.455Z,9.80
2023-05-03T03:22:17.459Z,11.70
2023-05-03T03:24:45.263Z,8.40
2023-05-03T03:27:12.148Z,10.70
2023-05-03T03:29:39.051Z,12.70
2023-05-03T03:32:06.481Z,13.00
2023-05-03T03:34:35.398Z,15.50
2023-05-03T03:37:02.379Z,15.20
2023-05-03T03:39:30.836Z,8.40
2023-05-03T03:41:57.913Z,10.20
2023-05-03T03:44:25.165Z,12.00
2023-05-03T03:46:52.085Z,13.00
2023-05-03T03:49:19.624Z,13.80
2023-05-03T03:55:23.687Z,17.00
2023-05-03T03:57:51.684Z,13.40
2023-05-03T04:00:18.897Z,7.60
2023-05-03T04:02:48.418Z,15.20
2023-05-03T04:05:17.401Z,9.90
2023-05-03T04:07:44.746Z,8.50
2023-05-03T04:10:11.692Z,9.90
2023-05-03T04:12:39.715Z,17.80
2023-05-03T04:15:07.627Z,9.40
2023-05-03T04:17:35.924Z,8.70
2023-05-03T04:20:10.566Z,8.60
2023-05-03T04:22:39.876Z,14.10
2023-05-03T04:25:10.122Z,5.80
2023-05-03T04:27:37.749Z,10.50
2023-05-03T04:30:06.938Z,7.10
2023-05-03T04:32:36.976Z,13.60
2023-05-03T04:35:09.982Z,8.70
2023-05-03T04:37:38.113Z,12.50
2023-05-03T04:40:08.073Z,11.40
2023-05-03T04:42:38.361Z,5.30
2023-05-03T04:45:09.073Z,9.70
2023-05-03T04:50:55.438Z,12.80
2023-05-03T04:53:23.151Z,9.30
2023-05-03T04:55:57.823Z,10.50
2023-05-03T04:58:25.014Z,13.80
2023-05-03T05:00:52.347Z,11.90
2023-05-03T05:03:24.565Z,14.20
2023-05-03T05:05:51.658Z,17.40
2023-05-03T05:08:21.011Z,17.60
2023-05-03T05:10:51.165Z,19.70
2023-05-03T05:13:20.712Z,27.70
2023-05-03T05:15:47.458Z,23.00
2023-05-03T05:18:14.237Z,28.20
2023-05-03T05:20:41.373Z,29.30
2023-05-03T05:23:08.334Z,27.80
2023-05-03T05:25:36.218Z,38.40
2023-05-03T05:28:03.902Z,22.50
2023-05-03T05:30:31.874Z,24.20
2023-05-03T05:32:59.356Z,28.50
2023-05-03T05:35:26.345Z,18.80
2023-05-03T05:37:53.285Z,16.10
2023-05-03T05:40:20.185Z,15.50
2023-05-03T05:42:51.334Z,12.70
2023-05-03T05:45:18.935Z,13.80
2023-05-03T05:47:46.029Z,8.90
2023-05-03T05:50:18.202Z,8.30
2023-05-03T05:52:47.423Z,9.50
2023-05-03T05:55:16.016Z,9.00
2023-05-03T05:57:44.535Z,4.30
2023-05-03T06:00:14.959Z,18.10
2023-05-03T06:02:43.057Z,4.70
2023-05-03T06:05:13.151Z,6.30
2023-05-03T06:07:40.993Z,7.40
2023-05-03T06:10:08.033Z,10.20
2023-05-03T06:12:36.790Z,5.40
2023-05-03T06:15:06.198Z,5.80
2023-05-03T06:17:36.564Z,5.50
2023-05-03T06:20:05.754Z,7.40
2023-05-03T06:22:33.273Z,6.10
2023-05-03T06:25:00.122Z,4.20
2023-05-03T06:27:27.461Z,6.90
2023-05-03T06:29:55.388Z,4.70
2023-05-03T06:32:23.487Z,8.20
2023-05-03T06:34:50.989Z,10.60
2023-05-03T06:37:18.357Z,9.70
2023-05-03T06:39:45.123Z,8.70
2023-05-03T06:42:12.019Z,11.20
2023-05-03T06:44:40.476Z,7.30
2023-05-03T06:47:07.605Z,4.80
2023-05-03T06:49:34.760Z,6.20
2023-05-03T06:52:01.845Z,6.70
2023-05-03T06:54:28.699Z,3.40
2023-05-03T06:56:55.607Z,7.60
2023-05-03T06:59:22.664Z,7.70
2023-05-03T07:01:50.887Z,9.50
2023-05-03T07:04:17.846Z,4.00
2023-05-03T07:06:55.904Z,3.30
2023-05-03T07:09:32.080Z,8.40
2023-05-03T07:12:08.813Z,4.60
2023-05-03T07:14:35.759Z,8.30
2023-05-03T07:17:02.627Z,8.30
2023-05-03T07:19:30.614Z,7.00
2023-05-03T07:21:57.350Z,6.40
2023-05-03T07:24:26.221Z,2.90
2023-05-03T07:26:53.448Z,10.10
2023-05-03T07:29:20.813Z,8.60
2023-05-03T07:31:47.590Z,14.00
2023-05-03T07:34:14.570Z,5.00
2023-05-03T07:36:41.465Z,5.70
2023-05-03T07:39:08.711Z,8.20
2023-05-03T07:41:35.676Z,3.20
2023-05-03T07:44:02.470Z,6.50
2023-05-03T07:46:31.358Z,8.90
2023-05-03T07:48:58.616Z,9.50
2023-05-03T07:51:26.620Z,7.90
2023-05-03T07:53:53.427Z,7.00
2023-05-03T07:56:21.444Z,7.40
2023-05-03T08:01:15.644Z,7.40
2023-05-03T08:03:44.252Z,8.10
2023-05-03T08:06:11.312Z,9.40
2023-05-03T08:08:38.533Z,6.30
2023-05-03T08:11:05.487Z,7.30
2023-05-03T08:13:34.972Z,6.90
2023-05-03T08:16:06.842Z,9.10
2023-05-03T08:18:33.679Z,8.10
2023-05-03T08:21:00.711Z,9.30
2023-05-03T08:23:27.491Z,5.30
2023-05-03T08:25:54.902Z,7.10
2023-05-03T08:28:21.822Z,6.10
2023-05-03T08:30:48.704Z,8.60
2023-05-03T08:33:15.626Z,13.20
2023-05-03T08:35:42.462Z,8.40
2023-05-03T08:38:09.802Z,8.40
2023-05-03T08:40:37.564Z,4.90
2023-05-03T08:43:08.769Z,7.60
2023-05-03T08:45:35.902Z,8.50
2023-05-03T08:48:04.517Z,6.20
2023-05-03T08:50:31.960Z,8.80
2023-05-03T08:52:59.424Z,8.50
2023-05-03T08:55:26.329Z,4.50
2023-05-03T08:57:54.110Z,6.50
2023-05-03T09:00:26.456Z,6.30
2023-05-03T09:02:53.410Z,8.50
2023-05-03T09:05:20.412Z,4.90
2023-05-03T09:08:03.795Z,5.60
2023-05-03T09:10:30.982Z,5.80
2023-05-03T09:12:58.225Z,7.10
2023-05-03T09:15:25.050Z,8.70
2023-05-03T09:18:08.031Z,6.60
2023-05-03T09:20:35.721Z,7.90
2023-05-03T09:23:02.581Z,4.90
2023-05-03T09:25:45.698Z,4.30
2023-05-03T09:28:16.251Z,5.10
2023-05-03T09:30:43.387Z,5.80
2023-05-03T09:33:11.669Z,7.80
2023-05-03T09:35:38.948Z,7.30
2023-05-03T09:38:06.323Z,5.60
2023-05-03T09:40:33.163Z,4.80
2023-05-03T09:43:09.793Z,7.00
2023-05-03T09:45:36.950Z,9.60
2023-05-03T09:48:04.614Z,7.10
2023-05-03T09:50:33.610Z,8.10
2023-05-03T09:53:04.157Z,7.40
2023-05-03T09:55:37.635Z,4.90
2023-05-03T09:58:07.365Z,4.30
2023-05-03T10:00:40.771Z,14.10
2023-05-03T10:03:09.021Z,5.00
2023-05-03T10:05:54.161Z,6.60
2023-05-03T10:08:44.105Z,7.60
2023-05-03T10:11:11.002Z,7.20
2023-05-03T10:13:37.749Z,7.00
2023-05-03T10:16:09.473Z,9.10
2023-05-03T10:18:38.193Z,3.80
2023-05-03T10:21:07.002Z,4.80
2023-05-03T10:23:33.747Z,3.80
2023-05-03T10:26:11.495Z,3.20
2023-05-03T10:28:38.453Z,6.90
2023-05-03T10:31:05.471Z,10.40
2023-05-03T10:33:33.944Z,6.40
2023-05-03T10:36:04.815Z,6.50
2023-05-03T10:38:32.704Z,5.10
2023-05-03T10:41:03.556Z,11.20
2023-05-03T10:43:30.772Z,8.20
2023-05-03T10:45:57.741Z,3.90
2023-05-03T10:48:24.510Z,7.20
2023-05-03T10:50:51.914Z,5.50
2023-05-03T10:53:34.094Z,4.60
2023-05-03T10:56:02.258Z,4.80
2023-05-03T10:58:29.296Z,3.40
2023-05-03T11:00:56.608Z,7.30
2023-05-03T11:03:28.504Z,10.50
2023-05-03T11:05:55.291Z,11.10
2023-05-03T11:08:22.388Z,10.70
2023-05-03T11:10:49.898Z,3.10
2023-05-03T11:13:17.442Z,5.30
2023-05-03T11:15:45.336Z,8.20
2023-05-03T11:18:14.068Z,6.00
2023-05-03T11:20:41.023Z,6.80
2023-05-03T11:23:07.897Z,8.30
2023-05-03T11:25:34.827Z,8.40
2023-05-03T11:28:02.217Z,6.90
2023-05-03T11:30:29.688Z,3.90
2023-05-03T11:32:56.805Z,12.80
2023-05-03T11:35:26.963Z,6.60
2023-05-03T11:37:56.869Z,4.20
2023-05-03T11:40:24.930Z,7.80
2023-05-03T11:42:54.880Z,6.90
2023-05-03T11:45:25.418Z,9.50
2023-05-03T11:47:52.501Z,8.20
2023-05-03T11:50:19.666Z,4.90
2023-05-03T11:52:46.676Z,5.80
2023-05-03T11:55:14.147Z,4.60
2023-05-03T11:57:42.260Z,8.00
2023-05-03T12:00:17.317Z,4.10
2023-05-03T12:02:45.116Z,9.70
2023-05-03T12:05:12.844Z,7.40
2023-05-03T12:07:40.496Z,4.70
2023-05-03T12:10:23.160Z,7.90
2023-05-03T12:13:00.735Z,4.80
2023-05-03T12:15:36.728Z,5.60
2023-05-03T12:18:09.576Z,5.30
2023-05-03T12:23:11.046Z,6.00
2023-05-03T12:25:39.768Z,2.90
2023-05-03T12:30:40.448Z,9.40
2023-05-03T12:33:10.379Z,3.80
2023-05-03T12:35:40.157Z,6.60
2023-05-03T12:38:09.709Z,5.60
2023-05-03T12:40:37.239Z,8.50
2023-05-03T12:43:04.527Z,9.30
2023-05-03T12:45:34.607Z,4.70
2023-05-03T12:48:02.968Z,3.70
2023-05-03T12:50:31.901Z,3.10
2023-05-03T12:53:02.327Z,6.50
2023-05-03T12:55:34.534Z,4.80
2023-05-03T13:00:35.923Z,10.30
2023-05-03T13:05:35.921Z,9.80
2023-05-03T13:08:09.349Z,3.60
2023-05-03T13:10:37.636Z,4.60
2023-05-03T13:13:04.466Z,4.30
2023-05-03T13:15:31.328Z,4.00
2023-05-03T13:18:01.580Z,4.60
2023-05-03T13:20:29.738Z,4.70
2023-05-03T13:22:57.049Z,6.50
2023-05-03T13:25:23.833Z,6.40
2023-05-03T13:27:53.173Z,8.60
2023-05-03T13:30:21.795Z,8.90
2023-05-03T13:32:49.437Z,10.50
2023-05-03T13:35:16.867Z,3.60
2023-05-03T13:37:43.903Z,7.00
2023-05-03T13:40:11.105Z,5.70
2023-05-03T13:42:38.165Z,3.60
2023-05-03T13:45:05.222Z,4.00
2023-05-03T13:47:47.187Z,4.90
2023-05-03T13:50:18.909Z,11.30
2023-05-03T13:52:46.222Z,5.60
2023-05-03T13:55:13.092Z,8.80
2023-05-03T13:57:39.906Z,8.70
2023-05-03T14:00:07.479Z,12.50
2023-05-03T14:02:34.520Z,17.10
2023-05-03T14:05:01.384Z,11.30
2023-05-03T14:07:28.157Z,5.70
2023-05-03T14:09:55.041Z,9.30
2023-05-03T14:12:21.970Z,5.50
2023-05-03T14:14:48.823Z,4.80
2023-05-03T14:17:16.791Z,5.60
2023-05-03T14:19:43.789Z,8.80
2023-05-03T14:22:11.376Z,8.00
2023-05-03T14:24:38.531Z,8.40
2023-05-03T14:27:05.375Z,7.30
2023-05-03T14:29:32.185Z,7.90
2023-05-03T14:31:59.183Z,5.20
2023-05-03T14:34:26.166Z,9.70
2023-05-03T14:36:53.064Z,7.60
2023-05-03T14:39:20.140Z,11.10
2023-05-03T14:41:48.145Z,16.80
2023-05-03T14:44:15.063Z,8.10
2023-05-03T14:46:41.987Z,5.70
2023-05-03T14:49:08.910Z,7.40
2023-05-03T14:51:35.824Z,7.40
2023-05-03T14:54:02.732Z,12.10
2023-05-03T14:56:31.794Z,10.70
2023-05-03T14:58:59.117Z,10.90
2023-05-03T15:01:26.318Z,11.60
2023-05-03T15:03:53.666Z,13.70
2023-05-03T15:06:25.557Z,8.60
2023-05-03T15:08:52.601Z,10.30
2023-05-03T15:11:19.586Z,10.70
2023-05-03T15:13:47.016Z,12.00
2023-05-03T15:16:13.946Z,5.90
2023-05-03T15:18:40.880Z,9.90
2023-05-03T15:21:07.755Z,6.20
2023-05-03T15:23:34.572Z,9.40
2023-05-03T15:26:01.585Z,7.30
2023-05-03T15:28:28.377Z,14.60
2023-05-03T15:30:55.129Z,13.20
2023-05-03T15:33:21.975Z,11.80
2023-05-03T15:35:48.861Z,9.40
2023-05-03T15:38:17.954Z,11.20
2023-05-03T15:40:44.768Z,7.30
2023-05-03T15:43:11.604Z,7.70
2023-05-03T15:45:38.413Z,8.70
2023-05-03T15:48:05.384Z,7.80
2023-05-03T15:50:32.333Z,8.80
2023-05-03T15:52:59.130Z,7.80
2023-05-03T15:55:26.912Z,8.00
2023-05-03T15:57:57.280Z,8.30
2023-05-03T16:00:25.569Z,6.80
2023-05-03T16:02:53.182Z,8.60
2023-05-03T16:05:20.444Z,11.80
2023-05-03T16:07:47.676Z,9.20
2023-05-03T16:10:15.120Z,9.30
2023-05-03T16:12:42.989Z,13.50
2023-05-03T16:15:10.429Z,9.80
2023-05-03T16:17:37.347Z,11.80
2023-05-03T16:20:10.792Z,10.50
2023-05-03T16:22:37.772Z,19.20
2023-05-03T16:25:07.489Z,19.00
2023-05-03T16:27:34.671Z,16.10
2023-05-03T16:30:01.851Z,15.20
2023-05-03T16:32:29.108Z,16.10
2023-05-03T16:34:56.547Z,12.30
2023-05-03T16:37:23.282Z,18.50
2023-05-03T16:39:50.044Z,20.60
2023-05-03T16:42:17.652Z,35.60
2023-05-03T16:44:45.114Z,40.60
2023-05-03T16:47:11.880Z,46.90
2023-05-03T16:49:38.707Z,42.50
2023-05-03T16:52:08.416Z,55.20
2023-05-03T16:54:37.892Z,77.30
2023-05-03T16:57:04.754Z,61.70
2023-05-03T16:59:31.586Z,73.40
2023-05-03T17:01:58.350Z,66.80
2023-05-03T17:04:25.162Z,58.30
2023-05-03T17:09:19.770Z,42.40
2023-05-03T17:11:47.207Z,43.60
2023-05-03T17:14:14.025Z,47.10
2023-05-03T17:16:46.059Z,37.80
2023-05-03T17:19:12.916Z,30.70
2023-05-03T17:21:39.752Z,28.00
2023-05-03T17:24:06.700Z,20.30
2023-05-03T17:26:33.509Z,20.80
2023-05-03T17:29:01.191Z,19.00
2023-05-03T17:31:28.062Z,28.80
2023-05-03T17:33:54.868Z,25.60
2023-05-03T17:36:22.499Z,23.50
2023-05-03T17:38:49.809Z,18.60
2023-05-03T17:41:17.074Z,19.40
2023-05-03T17:43:46.408Z,24.00
2023-05-03T17:46:14.490Z,19.60
2023-05-03T17:48:44.554Z,27.60
2023-05-03T17:51:14.386Z,27.90
2023-05-03T17:53:42.630Z,27.00
2023-05-03T17:56:13.245Z,25.80
2023-05-03T17:58:40.124Z,22.20
2023-05-03T18:01:10.576Z,24.70
2023-05-03T18:03:37.783Z,25.60
2023-05-03T18:06:05.753Z,28.00
2023-05-03T18:08:32.580Z,27.40
2023-05-03T18:10:59.528Z,38.80
2023-05-03T18:13:27.021Z,27.70
2023-05-03T18:15:53.919Z,28.60
2023-05-03T18:18:21.283Z,24.80
2023-05-03T18:20:56.855Z,26.70
2023-05-03T18:23:23.697Z,20.70
2023-05-03T18:25:52.524Z,29.50
2023-05-03T18:28:20.901Z,22.50
2023-05-03T18:30:47.710Z,42.00
2023-05-03T18:33:14.584Z,41.90
2023-05-03T18:35:42.154Z,34.60
2023-05-03T18:38:10.012Z,38.60
2023-05-03T18:40:36.938Z,33.60
2023-05-03T18:43:04.250Z,18.00
2023-05-03T18:45:31.123Z,18.90
2023-05-03T18:47:58.018Z,15.80
2023-05-03T18:50:25.539Z,16.10
2023-05-03T18:52:52.734Z,13.50
2023-05-03T18:55:19.957Z,15.30
2023-05-03T18:57:46.810Z,16.90
2023-05-03T19:00:14.792Z,13.30
2023-05-03T19:02:41.690Z,13.50
2023-05-03T19:05:11.986Z,8.80
2023-05-03T19:07:43.299Z,10.90
2023-05-03T19:10:11.026Z,11.70
2023-05-03T19:12:37.900Z,17.00
2023-05-03T19:15:04.925Z,12.00
2023-05-03T19:17:31.665Z,16.40
2023-05-03T19:19:59.232Z,11.90
2023-05-03T19:22:26.026Z,10.80
2023-05-03T19:24:52.812Z,17.00
2023-05-03T19:27:19.874Z,11.90
2023-05-03T19:29:46.659Z,10.80
2023-05-03T19:32:13.481Z,15.30
2023-05-03T19:34:40.499Z,7.60
2023-05-03T19:37:07.349Z,13.90
2023-05-03T19:39:35.901Z,9.50
2023-05-03T19:42:04.166Z,14.60
2023-05-03T19:44:33.164Z,12.00
2023-05-03T19:46:59.947Z,12.70
2023-05-03T19:49:26.660Z,8.00
2023-05-03T19:51:54.089Z,16.80
2023-05-03T19:54:21.142Z,10.00
2023-05-03T19:56:48.752Z,14.40
2023-05-03T19:59:15.770Z,9.60
2023-05-03T20:01:43.100Z,9.70
2023-05-03T20:04:10.074Z,15.90
2023-05-03T20:06:36.990Z,8.50
2023-05-03T20:09:04.648Z,9.90
2023-05-03T20:11:31.507Z,10.60
2023-05-03T20:13:58.227Z,13.40
2023-05-03T20:16:27.418Z,8.40
2023-05-03T20:18:54.350Z,9.70
2023-05-03T20:21:21.693Z,7.90
2023-05-03T20:23:49.344Z,8.40
2023-05-03T20:26:16.319Z,11.60
2023-05-03T20:28:43.184Z,9.20
2023-05-03T20:31:11.082Z,11.80
2023-05-03T20:33:37.946Z,8.30
2023-05-03T20:36:05.086Z,7.20
2023-05-03T20:38:31.872Z,8.90
2023-05-03T20:40:58.618Z,13.70
2023-05-03T20:43:25.548Z,14.10
2023-05-03T20:45:53.476Z,9.20
2023-05-03T20:48:20.788Z,6.80
2023-05-03T20:50:47.782Z,9.60
2023-05-03T20:53:14.537Z,7.10
2023-05-03T20:55:41.306Z,13.10
2023-05-03T20:58:08.113Z,8.50
2023-05-03T21:00:34.890Z,7.60
2023-05-03T21:03:01.748Z,8.60
2023-05-03T21:05:28.668Z,7.80
2023-05-03T21:07:55.461Z,7.00
2023-05-03T21:10:22.270Z,5.60
2023-05-03T21:12:49.023Z,8.80
2023-05-03T21:15:15.997Z,7.90
2023-05-03T21:17:42.845Z,7.70
2023-05-03T21:20:10.731Z,5.40
2023-05-03T21:22:37.857Z,5.80
2023-05-03T21:25:04.907Z,5.60
2023-05-03T21:27:31.652Z,6.70
2023-05-03T21:29:59.312Z,5.20
2023-05-03T21:32:26.107Z,4.80
2023-05-03T21:34:53.886Z,7.70
2023-05-03T21:37:20.660Z,7.00
2023-05-03T21:39:57.817Z,4.50
2023-05-03T21:42:28.035Z,5.90
2023-05-03T21:44:54.848Z,5.20
2023-05-03T21:47:21.627Z,7.70
2023-05-03T21:49:48.404Z,6.00
2023-05-03T21:52:15.168Z,12.10
2023-05-03T21:54:41.948Z,7.30
2023-05-03T21:57:09.088Z,9.40
2023-05-03T21:59:35.926Z,3.90
2023-05-03T22:02:03.273Z,8.20
2023-05-03T22:04:30.883Z,5.50
2023-05-03T22:06:57.749Z,7.00
2023-05-03T22:09:24.829Z,6.60
2023-05-03T22:11:52.315Z,7.00
2023-05-03T22:14:19.079Z,6.30
2023-05-03T22:16:46.157Z,8.00
2023-05-03T22:19:13.432Z,7.60
2023-05-03T22:21:40.217Z,4.90
2023-05-03T22:24:07.700Z,7.30
2023-05-03T22:26:34.509Z,5.40
2023-05-03T22:29:01.262Z,6.40
2023-05-03T22:31:30.275Z,8.10
2023-05-03T22:33:57.116Z,7.60
2023-05-03T22:36:23.941Z,10.20
2023-05-03T22:38:55.251Z,10.30
2023-05-03T22:41:22.271Z,9.90
2023-05-03T22:43:49.093Z,11.10
2023-05-03T22:46:15.962Z,9.50
2023-05-03T22:48:42.757Z,9.30
2023-05-03T22:51:09.570Z,10.10
2023-05-03T22:53:36.340Z,7.40
2023-05-03T22:56:04.422Z,7.80
2023-05-03T22:58:31.359Z,8.70
2023-05-03T23:00:58.619Z,6.80
2023-05-03T23:03:25.689Z,7.30
2023-05-03T23:05:52.953Z,10.20
2023-05-03T23:08:19.866Z,6.70
2023-05-03T23:10:46.606Z,9.50
2023-05-03T23:13:13.549Z,7.30
2023-05-03T23:15:40.493Z,7.30
2023-05-03T23:18:07.434Z,6.10
2023-05-03T23:20:34.460Z,6.50
2023-05-03T23:23:01.248Z,6.70
2023-05-03T23:25:27.977Z,5.80
2023-05-03T23:27:54.688Z,7.40
2023-05-03T23:30:21.847Z,10.50
2023-05-03T23:32:49.422Z,6.40
2023-05-03T23:35:17.098Z,8.20
2023-05-03T23:37:43.961Z,7.20
2023-05-03T23:40:13.020Z,6.10
2023-05-03T23:42:41.352Z,8.00
2023-05-03T23:45:08.756Z,7.20
2023-05-03T23:47:35.647Z,6.90
2023-05-03T23:50:03.484Z,8.10
2023-05-03T23:52:30.443Z,8.00
2023-05-03T23:54:57.217Z,7.70
2023-05-03T23:57:23.945Z,7.90
2023-05-03T23:59:50.749Z,8.30
